Terminal Aerodrome Forecast
Issued by NWS Goodland, KS

Home | Current Version | Previous Version | Text Only | Print | Product List | Glossary On
Versions: 1 2 3 4 5 6 7 8 9 10 11
819
FTUS43 KGLD 232320
TAFGLD
TAF
KGLD 232320Z 2400/2424 17025G33KT P6SM BKN300
     FM240300 16017KT P6SM BKN300 WS020/18045KT
     FM240700 18020G28KT P6SM BKN250 WS020/21050KT
     FM240900 19019G27KT P6SM BKN250
     FM241200 23013KT P6SM SCT250
     FM241400 29016G25KT P6SM SCT250
     FM241700 33016G26KT P6SM FEW250
     FM242000 33011KT P6SM SCT200
     FM242300 04007KT P6SM FEW050 FEW120 BKN200=

USA.gov is the U.S. government's official web portal to all federal, state and local government web resources and services.